sensor_id;sensor_type;location;lat;lon;timestamp;pressure;altitude;pressure_sealevel;temperature;humidity
75998;BME280;64685;48.762;44.822;2023-04-06T00:00:33;101020.78;;;13.65;62.69
75998;BME280;64685;48.762;44.822;2023-04-06T00:05:36;101022.59;;;13.61;62.48
75998;BME280;64685;48.762;44.822;2023-04-06T00:10:38;101021.44;;;13.62;62.80
75998;BME280;64685;48.762;44.822;2023-04-06T00:15:41;101015.50;;;13.63;62.67
75998;BME280;64685;48.762;44.822;2023-04-06T00:20:43;101013.31;;;13.69;62.58
75998;BME280;64685;48.762;44.822;2023-04-06T00:25:46;101010.16;;;13.70;62.25
75998;BME280;64685;48.762;44.822;2023-04-06T00:30:48;101012.00;;;13.66;62.44
75998;BME280;64685;48.762;44.822;2023-04-06T00:35:51;101012.34;;;13.65;62.30
75998;BME280;64685;48.762;44.822;2023-04-06T00:40:54;101004.59;;;13.62;62.43
75998;BME280;64685;48.762;44.822;2023-04-06T00:45:57;101006.94;;;13.60;62.78
75998;BME280;64685;48.762;44.822;2023-04-06T00:51:00;100994.06;;;13.59;62.70
75998;BME280;64685;48.762;44.822;2023-04-06T00:56:03;100998.34;;;13.57;63.20
75998;BME280;64685;48.762;44.822;2023-04-06T01:01:17;100999.97;;;13.66;62.79
75998;BME280;64685;48.762;44.822;2023-04-06T01:06:22;101001.75;;;13.70;62.83
75998;BME280;64685;48.762;44.822;2023-04-06T01:11:32;101002.91;;;13.69;62.94
75998;BME280;64685;48.762;44.822;2023-04-06T01:16:37;101001.94;;;13.65;63.06
75998;BME280;64685;48.762;44.822;2023-04-06T01:21:45;100996.13;;;13.70;62.94
75998;BME280;64685;48.762;44.822;2023-04-06T01:27:11;100987.25;;;13.68;63.28
75998;BME280;64685;48.762;44.822;2023-04-06T01:32:26;100989.72;;;13.70;63.37
75998;BME280;64685;48.762;44.822;2023-04-06T01:37:29;100990.34;;;13.75;63.27
75998;BME280;64685;48.762;44.822;2023-04-06T01:42:37;100997.31;;;13.69;63.18
75998;BME280;64685;48.762;44.822;2023-04-06T01:47:41;100992.66;;;13.73;63.19
75998;BME280;64685;48.762;44.822;2023-04-06T01:52:46;100994.16;;;13.71;63.29
75998;BME280;64685;48.762;44.822;2023-04-06T01:57:49;100990.53;;;13.70;63.32
75998;BME280;64685;48.762;44.822;2023-04-06T02:03:05;100991.38;;;13.71;63.04
75998;BME280;64685;48.762;44.822;2023-04-06T02:08:08;100997.34;;;13.61;62.64
75998;BME280;64685;48.762;44.822;2023-04-06T02:13:12;100988.81;;;13.49;63.04
75998;BME280;64685;48.762;44.822;2023-04-06T02:18:20;100997.69;;;13.51;63.05
75998;BME280;64685;48.762;44.822;2023-04-06T02:23:23;101004.97;;;13.43;62.94
75998;BME280;64685;48.762;44.822;2023-04-06T02:28:25;101007.47;;;13.45;62.95
75998;BME280;64685;48.762;44.822;2023-04-06T02:33:28;101014.13;;;13.32;62.85
75998;BME280;64685;48.762;44.822;2023-04-06T02:38:31;101026.50;;;13.31;63.01
75998;BME280;64685;48.762;44.822;2023-04-06T02:43:35;101028.94;;;13.32;62.88
75998;BME280;64685;48.762;44.822;2023-04-06T02:48:52;101024.81;;;13.30;63.15
75998;BME280;64685;48.762;44.822;2023-04-06T02:53:55;101025.16;;;13.37;63.04
75998;BME280;64685;48.762;44.822;2023-04-06T02:58:58;101028.09;;;13.49;62.71
75998;BME280;64685;48.762;44.822;2023-04-06T03:04:04;101031.53;;;13.54;62.67
75998;BME280;64685;48.762;44.822;2023-04-06T03:09:07;101037.66;;;13.57;62.29
75998;BME280;64685;48.762;44.822;2023-04-06T03:14:11;101035.47;;;13.62;62.18
75998;BME280;64685;48.762;44.822;2023-04-06T03:19:13;101031.84;;;13.62;62.11
75998;BME280;64685;48.762;44.822;2023-04-06T03:24:16;101033.63;;;13.74;61.88
75998;BME280;64685;48.762;44.822;2023-04-06T03:29:19;101051.03;;;13.88;61.46
75998;BME280;64685;48.762;44.822;2023-04-06T03:34:21;101053.72;;;13.85;61.40
75998;BME280;64685;48.762;44.822;2023-04-06T03:39:24;101050.84;;;13.93;61.27
75998;BME280;64685;48.762;44.822;2023-04-06T03:44:27;101054.31;;;13.99;61.07
75998;BME280;64685;48.762;44.822;2023-04-06T03:49:29;101059.38;;;14.05;61.09
75998;BME280;64685;48.762;44.822;2023-04-06T03:54:33;101066.97;;;14.13;60.77
75998;BME280;64685;48.762;44.822;2023-04-06T03:59:35;101054.97;;;13.96;60.72
75998;BME280;64685;48.762;44.822;2023-04-06T04:04:38;101053.94;;;14.09;60.60
75998;BME280;64685;48.762;44.822;2023-04-06T04:09:40;101059.09;;;14.36;60.29
75998;BME280;64685;48.762;44.822;2023-04-06T04:14:43;101059.41;;;14.43;60.35
75998;BME280;64685;48.762;44.822;2023-04-06T04:19:45;101059.53;;;14.46;60.32
75998;BME280;64685;48.762;44.822;2023-04-06T04:24:49;101062.75;;;14.57;59.66
75998;BME280;64685;48.762;44.822;2023-04-06T04:29:52;101055.44;;;14.85;59.85
75998;BME280;64685;48.762;44.822;2023-04-06T04:34:55;101067.72;;;15.01;59.61
75998;BME280;64685;48.762;44.822;2023-04-06T04:40:09;101062.91;;;15.22;58.96
75998;BME280;64685;48.762;44.822;2023-04-06T04:45:24;101068.38;;;15.39;58.50
75998;BME280;64685;48.762;44.822;2023-04-06T04:50:27;101065.25;;;15.32;58.56
75998;BME280;64685;48.762;44.822;2023-04-06T04:55:32;101076.16;;;15.54;57.95
75998;BME280;64685;48.762;44.822;2023-04-06T05:00:35;101081.25;;;15.72;58.05
75998;BME280;64685;48.762;44.822;2023-04-06T05:05:38;101077.28;;;15.85;57.53
75998;BME280;64685;48.762;44.822;2023-04-06T05:10:42;101084.50;;;16.19;56.81
75998;BME280;64685;48.762;44.822;2023-04-06T05:15:45;101086.88;;;16.41;56.63
75998;BME280;64685;48.762;44.822;2023-04-06T05:20:57;101074.13;;;16.83;55.70
75998;BME280;64685;48.762;44.822;2023-04-06T05:26:08;101085.81;;;17.36;54.85
75998;BME280;64685;48.762;44.822;2023-04-06T05:31:11;101090.09;;;18.01;53.99
75998;BME280;64685;48.762;44.822;2023-04-06T05:36:21;101077.25;;;18.50;53.12
75998;BME280;64685;48.762;44.822;2023-04-06T05:41:24;101089.41;;;19.04;52.16
75998;BME280;64685;48.762;44.822;2023-04-06T05:46:26;101087.63;;;18.96;51.71
75998;BME280;64685;48.762;44.822;2023-04-06T05:51:32;101085.91;;;19.45;50.80
75998;BME280;64685;48.762;44.822;2023-04-06T05:56:34;101082.81;;;20.36;49.21
75998;BME280;64685;48.762;44.822;2023-04-06T06:01:38;101088.34;;;20.78;48.43
75998;BME280;64685;48.762;44.822;2023-04-06T06:06:41;101085.47;;;21.00;47.73
75998;BME280;64685;48.762;44.822;2023-04-06T06:11:59;101100.13;;;21.65;46.62
75998;BME280;64685;48.762;44.822;2023-04-06T06:17:04;101103.19;;;21.49;45.86
75998;BME280;64685;48.762;44.822;2023-04-06T06:22:07;101100.44;;;21.27;45.86
75998;BME280;64685;48.762;44.822;2023-04-06T06:27:14;101106.78;;;21.46;45.20
75998;BME280;64685;48.762;44.822;2023-04-06T06:32:16;101100.41;;;21.86;44.61
75998;BME280;64685;48.762;44.822;2023-04-06T06:37:22;101100.41;;;21.86;44.44
75998;BME280;64685;48.762;44.822;2023-04-06T06:42:25;101100.44;;;21.56;44.75
75998;BME280;64685;48.762;44.822;2023-04-06T06:47:46;101100.13;;;21.65;44.29
75998;BME280;64685;48.762;44.822;2023-04-06T06:52:49;101101.03;;;21.69;43.56
75998;BME280;64685;48.762;44.822;2023-04-06T06:57:52;101105.81;;;22.41;42.47
75998;BME280;64685;48.762;44.822;2023-04-06T07:02:54;101089.84;;;22.70;41.56
75998;BME280;64685;48.762;44.822;2023-04-06T07:07:57;101086.34;;;22.94;41.34
75998;BME280;64685;48.762;44.822;2023-04-06T07:13:00;101097.53;;;22.66;41.52
75998;BME280;64685;48.762;44.822;2023-04-06T07:18:02;101094.50;;;22.45;40.59
75998;BME280;64685;48.762;44.822;2023-04-06T07:23:05;101097.63;;;22.33;40.93
75998;BME280;64685;48.762;44.822;2023-04-06T07:28:08;101089.72;;;23.13;40.09
75998;BME280;64685;48.762;44.822;2023-04-06T07:33:11;101082.69;;;23.00;40.46
75998;BME280;64685;48.762;44.822;2023-04-06T07:38:15;101078.63;;;25.37;37.67
75998;BME280;64685;48.762;44.822;2023-04-06T07:43:18;101084.94;;;27.33;35.50
75998;BME280;64685;48.762;44.822;2023-04-06T07:48:21;101079.53;;;28.02;33.94
75998;BME280;64685;48.762;44.822;2023-04-06T07:53:24;101071.78;;;28.75;32.45
75998;BME280;64685;48.762;44.822;2023-04-06T07:58:26;101069.19;;;28.84;32.00
75998;BME280;64685;48.762;44.822;2023-04-06T08:03:29;101059.78;;;30.00;29.88
75998;BME280;64685;48.762;44.822;2023-04-06T08:08:31;101061.50;;;29.98;28.78
75998;BME280;64685;48.762;44.822;2023-04-06T08:13:34;101049.13;;;30.97;27.45
75998;BME280;64685;48.762;44.822;2023-04-06T08:18:37;101055.34;;;30.63;26.17
75998;BME280;64685;48.762;44.822;2023-04-06T08:23:39;101048.13;;;29.10;25.53
75998;BME280;64685;48.762;44.822;2023-04-06T08:28:42;101043.34;;;29.03;25.40
75998;BME280;64685;48.762;44.822;2023-04-06T08:33:47;101038.25;;;30.40;24.01
75998;BME280;64685;48.762;44.822;2023-04-06T08:38:49;101036.56;;;29.33;25.15
75998;BME280;64685;48.762;44.822;2023-04-06T08:43:59;101031.69;;;29.49;24.75
75998;BME280;64685;48.762;44.822;2023-04-06T08:49:02;101035.84;;;29.09;25.06
75998;BME280;64685;48.762;44.822;2023-04-06T08:54:05;101030.81;;;29.52;24.68
75998;BME280;64685;48.762;44.822;2023-04-06T08:59:09;101022.03;;;25.73;26.91
75998;BME280;64685;48.762;44.822;2023-04-06T09:04:11;101020.47;;;27.07;25.66
75998;BME280;64685;48.762;44.822;2023-04-06T09:09:15;101018.03;;;27.99;24.31
75998;BME280;64685;48.762;44.822;2023-04-06T09:14:33;101007.13;;;29.45;22.21
75998;BME280;64685;48.762;44.822;2023-04-06T09:19:46;100997.50;;;28.01;22.72
75998;BME280;64685;48.762;44.822;2023-04-06T09:24:53;101018.31;;;27.82;23.39
75998;BME280;64685;48.762;44.822;2023-04-06T09:30:22;101010.63;;;26.71;24.41
75998;BME280;64685;48.762;44.822;2023-04-06T09:35:26;101010.63;;;27.42;24.35
75998;BME280;64685;48.762;44.822;2023-04-06T09:40:29;101006.53;;;27.99;23.52
75998;BME280;64685;48.762;44.822;2023-04-06T09:45:32;101007.81;;;27.68;24.44
75998;BME280;64685;48.762;44.822;2023-04-06T09:50:34;101002.75;;;26.79;25.22
75998;BME280;64685;48.762;44.822;2023-04-06T09:55:41;101002.09;;;28.44;24.20
75998;BME280;64685;48.762;44.822;2023-04-06T10:00:53;101000.06;;;27.65;24.20
75998;BME280;64685;48.762;44.822;2023-04-06T10:06:03;100992.50;;;28.05;23.91
75998;BME280;64685;48.762;44.822;2023-04-06T10:11:08;100991.03;;;28.66;24.13
75998;BME280;64685;48.762;44.822;2023-04-06T10:16:13;100985.16;;;29.54;22.54
75998;BME280;64685;48.762;44.822;2023-04-06T10:21:21;100985.25;;;28.89;23.27
75998;BME280;64685;48.762;44.822;2023-04-06T10:26:25;100992.28;;;28.65;23.15
75998;BME280;64685;48.762;44.822;2023-04-06T10:31:28;100996.91;;;27.26;24.06
75998;BME280;64685;48.762;44.822;2023-04-06T10:36:34;100992.47;;;27.82;24.06
75998;BME280;64685;48.762;44.822;2023-04-06T10:41:42;100985.44;;;28.78;23.50
75998;BME280;64685;48.762;44.822;2023-04-06T10:46:53;100996.78;;;29.28;22.76
75998;BME280;64685;48.762;44.822;2023-04-06T10:51:56;100985.69;;;28.45;24.15
75998;BME280;64685;48.762;44.822;2023-04-06T10:56:59;100989.34;;;27.39;24.98
75998;BME280;64685;48.762;44.822;2023-04-06T11:02:02;100985.03;;;26.06;25.52
75998;BME280;64685;48.762;44.822;2023-04-06T11:07:05;100981.47;;;25.06;27.30
75998;BME280;64685;48.762;44.822;2023-04-06T11:12:07;100983.19;;;25.72;27.11
75998;BME280;64685;48.762;44.822;2023-04-06T11:17:10;100986.41;;;26.35;26.98
75998;BME280;64685;48.762;44.822;2023-04-06T11:22:12;100976.72;;;26.63;26.39
75998;BME280;64685;48.762;44.822;2023-04-06T11:27:15;100973.44;;;26.20;26.47
75998;BME280;64685;48.762;44.822;2023-04-06T11:32:22;100981.50;;;26.36;26.77
75998;BME280;64685;48.762;44.822;2023-04-06T11:37:26;100971.63;;;25.89;26.99
75998;BME280;64685;48.762;44.822;2023-04-06T11:42:29;100969.00;;;24.16;28.43
75998;BME280;64685;48.762;44.822;2023-04-06T11:47:33;100968.06;;;23.42;29.86
75998;BME280;64685;48.762;44.822;2023-04-06T11:52:38;100971.81;;;23.67;29.30
75998;BME280;64685;48.762;44.822;2023-04-06T11:57:41;100961.66;;;23.90;29.13
75998;BME280;64685;48.762;44.822;2023-04-06T12:02:50;100959.63;;;23.98;28.99
75998;BME280;64685;48.762;44.822;2023-04-06T12:07:52;100960.84;;;24.18;28.65
75998;BME280;64685;48.762;44.822;2023-04-06T12:12:55;100953.94;;;24.05;29.12
75998;BME280;64685;48.762;44.822;2023-04-06T12:17:57;100956.28;;;23.43;29.53
75998;BME280;64685;48.762;44.822;2023-04-06T12:23:00;100965.81;;;22.83;30.55
75998;BME280;64685;48.762;44.822;2023-04-06T12:28:02;100964.75;;;22.44;31.42
75998;BME280;64685;48.762;44.822;2023-04-06T12:33:05;100963.81;;;22.26;31.77
75998;BME280;64685;48.762;44.822;2023-04-06T12:38:07;100962.78;;;22.51;29.98
75998;BME280;64685;48.762;44.822;2023-04-06T12:43:09;100964.81;;;22.51;30.23
75998;BME280;64685;48.762;44.822;2023-04-06T12:48:12;100961.22;;;22.61;29.98
75998;BME280;64685;48.762;44.822;2023-04-06T12:53:15;100950.22;;;22.63;29.97
75998;BME280;64685;48.762;44.822;2023-04-06T12:58:17;100958.88;;;22.84;29.53
75998;BME280;64685;48.762;44.822;2023-04-06T13:03:20;100961.63;;;22.09;31.13
75998;BME280;64685;48.762;44.822;2023-04-06T13:08:23;100975.34;;;21.96;32.62
75998;BME280;64685;48.762;44.822;2023-04-06T13:13:28;100975.97;;;21.39;33.46
75998;BME280;64685;48.762;44.822;2023-04-06T13:18:30;100982.50;;;21.07;34.08
75998;BME280;64685;48.762;44.822;2023-04-06T13:23:34;100980.81;;;21.02;34.52
75998;BME280;64685;48.762;44.822;2023-04-06T13:28:37;100982.31;;;20.93;34.79
75998;BME280;64685;48.762;44.822;2023-04-06T13:33:41;100976.59;;;20.63;34.61
75998;BME280;64685;48.762;44.822;2023-04-06T13:38:43;100987.66;;;20.42;34.96
75998;BME280;64685;48.762;44.822;2023-04-06T13:43:46;100985.91;;;20.34;35.65
75998;BME280;64685;48.762;44.822;2023-04-06T13:48:48;100980.03;;;20.20;35.71
75998;BME280;64685;48.762;44.822;2023-04-06T13:53:51;100977.56;;;20.19;36.05
75998;BME280;64685;48.762;44.822;2023-04-06T13:58:55;100979.50;;;20.15;36.61
75998;BME280;64685;48.762;44.822;2023-04-06T14:03:58;100972.56;;;20.12;36.77
75998;BME280;64685;48.762;44.822;2023-04-06T14:09:01;100978.72;;;20.14;36.55
75998;BME280;64685;48.762;44.822;2023-04-06T14:14:03;100975.72;;;20.07;35.93
75998;BME280;64685;48.762;44.822;2023-04-06T14:19:06;100971.88;;;19.96;34.67
75998;BME280;64685;48.762;44.822;2023-04-06T14:24:08;100967.28;;;19.88;34.04
75998;BME280;64685;48.762;44.822;2023-04-06T14:29:11;100964.66;;;19.76;34.03
75998;BME280;64685;48.762;44.822;2023-04-06T14:34:13;100972.16;;;19.65;34.55
75998;BME280;64685;48.762;44.822;2023-04-06T14:39:17;100963.25;;;19.44;34.92
75998;BME280;64685;48.762;44.822;2023-04-06T14:44:20;100967.72;;;19.23;35.42
75998;BME280;64685;48.762;44.822;2023-04-06T14:49:23;100963.22;;;19.03;35.80
75998;BME280;64685;48.762;44.822;2023-04-06T14:54:25;100963.66;;;18.86;35.80
75998;BME280;64685;48.762;44.822;2023-04-06T14:59:28;100958.38;;;18.65;36.32
75998;BME280;64685;48.762;44.822;2023-04-06T15:04:35;100966.56;;;18.51;36.49
75998;BME280;64685;48.762;44.822;2023-04-06T15:09:38;100962.06;;;18.31;37.13
75998;BME280;64685;48.762;44.822;2023-04-06T15:14:41;100965.25;;;18.14;37.49
75998;BME280;64685;48.762;44.822;2023-04-06T15:19:43;100959.47;;;17.92;38.43
75998;BME280;64685;48.762;44.822;2023-04-06T15:24:45;100973.56;;;17.76;38.81
75998;BME280;64685;48.762;44.822;2023-04-06T15:29:48;100967.56;;;17.62;38.95
75998;BME280;64685;48.762;44.822;2023-04-06T15:34:50;100984.69;;;17.54;39.42
75998;BME280;64685;48.762;44.822;2023-04-06T15:39:52;100985.22;;;17.44;39.50
75998;BME280;64685;48.762;44.822;2023-04-06T15:44:55;100996.31;;;17.37;39.73
75998;BME280;64685;48.762;44.822;2023-04-06T15:49:57;100997.75;;;17.31;40.23
75998;BME280;64685;48.762;44.822;2023-04-06T15:55:00;101007.19;;;17.23;40.54
75998;BME280;64685;48.762;44.822;2023-04-06T16:00:03;101014.28;;;17.17;41.55
75998;BME280;64685;48.762;44.822;2023-04-06T16:05:10;101009.56;;;17.21;41.63
75998;BME280;64685;48.762;44.822;2023-04-06T16:10:12;101029.03;;;17.38;41.61
75998;BME280;64685;48.762;44.822;2023-04-06T16:15:14;101027.31;;;17.49;41.78
75998;BME280;64685;48.762;44.822;2023-04-06T16:20:17;101030.44;;;17.59;41.40
75998;BME280;64685;48.762;44.822;2023-04-06T16:25:19;101035.38;;;17.78;41.00
75998;BME280;64685;48.762;44.822;2023-04-06T16:30:22;101037.22;;;17.86;40.77
75998;BME280;64685;48.762;44.822;2023-04-06T16:35:27;101039.13;;;17.82;41.12
75998;BME280;64685;48.762;44.822;2023-04-06T16:40:29;101045.75;;;17.74;41.56
75998;BME280;64685;48.762;44.822;2023-04-06T16:45:32;101046.41;;;17.67;42.02
75998;BME280;64685;48.762;44.822;2023-04-06T16:50:34;101065.41;;;17.55;42.49
75998;BME280;64685;48.762;44.822;2023-04-06T16:55:40;101058.91;;;17.39;43.11
75998;BME280;64685;48.762;44.822;2023-04-06T17:00:44;101065.81;;;17.14;43.32
75998;BME280;64685;48.762;44.822;2023-04-06T17:05:46;101063.28;;;16.97;43.68
75998;BME280;64685;48.762;44.822;2023-04-06T17:10:49;101062.97;;;16.74;44.44
75998;BME280;64685;48.762;44.822;2023-04-06T17:16:05;101065.97;;;16.54;45.00
75998;BME280;64685;48.762;44.822;2023-04-06T17:21:08;101065.00;;;16.38;44.88
75998;BME280;64685;48.762;44.822;2023-04-06T17:26:11;101069.69;;;16.22;45.61
75998;BME280;64685;48.762;44.822;2023-04-06T17:31:14;101070.88;;;16.09;45.72
75998;BME280;64685;48.762;44.822;2023-04-06T17:36:16;101068.38;;;15.95;46.54
75998;BME280;64685;48.762;44.822;2023-04-06T17:41:21;101064.72;;;15.83;47.27
75998;BME280;64685;48.762;44.822;2023-04-06T17:46:23;101071.97;;;15.72;47.80
75998;BME280;64685;48.762;44.822;2023-04-06T17:51:26;101071.72;;;15.65;47.83
75998;BME280;64685;48.762;44.822;2023-04-06T17:56:29;101063.88;;;15.58;48.27
75998;BME280;64685;48.762;44.822;2023-04-06T18:01:31;101065.84;;;15.58;48.90
75998;BME280;64685;48.762;44.822;2023-04-06T18:06:34;101054.50;;;15.66;49.26
75998;BME280;64685;48.762;44.822;2023-04-06T18:11:36;101050.91;;;15.78;48.72
75998;BME280;64685;48.762;44.822;2023-04-06T18:16:39;101058.88;;;15.88;48.75
75998;BME280;64685;48.762;44.822;2023-04-06T18:21:42;101048.78;;;15.87;48.42
75998;BME280;64685;48.762;44.822;2023-04-06T18:26:44;101046.31;;;15.85;48.23
75998;BME280;64685;48.762;44.822;2023-04-06T18:31:47;101047.59;;;15.76;48.61
75998;BME280;64685;48.762;44.822;2023-04-06T18:36:51;101044.97;;;15.59;48.87
75998;BME280;64685;48.762;44.822;2023-04-06T18:41:54;101040.03;;;15.44;49.36
75998;BME280;64685;48.762;44.822;2023-04-06T18:46:57;101035.69;;;15.26;49.83
75998;BME280;64685;48.762;44.822;2023-04-06T18:51:59;101036.81;;;15.13;49.96
75998;BME280;64685;48.762;44.822;2023-04-06T18:57:02;101049.19;;;15.00;50.08
75998;BME280;64685;48.762;44.822;2023-04-06T19:02:05;101040.69;;;14.88;50.65
75998;BME280;64685;48.762;44.822;2023-04-06T19:07:08;101037.72;;;14.84;51.11
75998;BME280;64685;48.762;44.822;2023-04-06T19:12:10;101038.22;;;14.86;51.31
75998;BME280;64685;48.762;44.822;2023-04-06T19:17:13;101045.91;;;14.77;51.49
75998;BME280;64685;48.762;44.822;2023-04-06T19:22:16;101039.25;;;14.61;51.27
75998;BME280;64685;48.762;44.822;2023-04-06T19:27:18;101043.63;;;14.50;52.00
75998;BME280;64685;48.762;44.822;2023-04-06T19:32:21;101043.72;;;14.33;52.63
75998;BME280;64685;48.762;44.822;2023-04-06T19:37:24;101040.31;;;14.28;53.23
75998;BME280;64685;48.762;44.822;2023-04-06T19:42:26;101049.59;;;14.20;53.37
75998;BME280;64685;48.762;44.822;2023-04-06T19:47:29;101049.59;;;14.20;54.01
75998;BME280;64685;48.762;44.822;2023-04-06T19:52:32;101062.00;;;14.19;53.72
75998;BME280;64685;48.762;44.822;2023-04-06T19:57:34;101051.63;;;14.11;53.93
75998;BME280;64685;48.762;44.822;2023-04-06T20:02:37;101055.28;;;14.03;53.79
75998;BME280;64685;48.762;44.822;2023-04-06T20:07:39;101050.72;;;13.90;53.73
75998;BME280;64685;48.762;44.822;2023-04-06T20:12:43;101058.38;;;13.81;54.08
75998;BME280;64685;48.762;44.822;2023-04-06T20:17:45;101059.53;;;13.71;54.36
75998;BME280;64685;48.762;44.822;2023-04-06T20:22:48;101058.75;;;13.63;54.69
75998;BME280;64685;48.762;44.822;2023-04-06T20:27:52;101061.41;;;13.59;54.59
75998;BME280;64685;48.762;44.822;2023-04-06T20:32:54;101060.28;;;13.43;54.91
75998;BME280;64685;48.762;44.822;2023-04-06T20:37:57;101053.56;;;13.27;54.78
75998;BME280;64685;48.762;44.822;2023-04-06T20:42:59;101063.78;;;13.23;54.99
75998;BME280;64685;48.762;44.822;2023-04-06T20:48:03;101072.38;;;13.18;55.26
75998;BME280;64685;48.762;44.822;2023-04-06T20:53:06;101067.75;;;13.14;55.30
75998;BME280;64685;48.762;44.822;2023-04-06T20:58:08;101068.59;;;13.06;55.22
75998;BME280;64685;48.762;44.822;2023-04-06T21:03:11;101083.59;;;13.01;55.45
75998;BME280;64685;48.762;44.822;2023-04-06T21:08:13;101077.50;;;12.99;54.90
75998;BME280;64685;48.762;44.822;2023-04-06T21:13:16;101084.41;;;12.93;54.90
75998;BME280;64685;48.762;44.822;2023-04-06T21:18:19;101076.16;;;12.88;54.61
75998;BME280;64685;48.762;44.822;2023-04-06T21:23:22;101083.25;;;12.77;54.74
75998;BME280;64685;48.762;44.822;2023-04-06T21:28:25;101079.28;;;12.70;54.96
75998;BME280;64685;48.762;44.822;2023-04-06T21:33:29;101082.38;;;12.68;55.19
75998;BME280;64685;48.762;44.822;2023-04-06T21:38:31;101096.22;;;12.56;55.45
75998;BME280;64685;48.762;44.822;2023-04-06T21:43:35;101088.31;;;12.50;55.40
75998;BME280;64685;48.762;44.822;2023-04-06T21:48:38;101087.78;;;12.39;55.31
75998;BME280;64685;48.762;44.822;2023-04-06T21:53:40;101091.22;;;12.28;56.13
75998;BME280;64685;48.762;44.822;2023-04-06T21:58:43;101096.28;;;12.17;55.71
75998;BME280;64685;48.762;44.822;2023-04-06T22:03:45;101094.13;;;12.06;56.47
75998;BME280;64685;48.762;44.822;2023-04-06T22:08:48;101089.13;;;11.94;56.35
75998;BME280;64685;48.762;44.822;2023-04-06T22:13:50;101092.19;;;11.76;56.94
75998;BME280;64685;48.762;44.822;2023-04-06T22:18:53;101095.13;;;11.71;57.13
75998;BME280;64685;48.762;44.822;2023-04-06T22:23:55;101103.25;;;11.59;57.59
75998;BME280;64685;48.762;44.822;2023-04-06T22:28:58;101097.78;;;11.54;57.30
75998;BME280;64685;48.762;44.822;2023-04-06T22:34:00;101103.81;;;11.47;57.82
75998;BME280;64685;48.762;44.822;2023-04-06T22:39:02;101097.34;;;11.38;58.23
75998;BME280;64685;48.762;44.822;2023-04-06T22:44:05;101096.84;;;11.36;57.58
75998;BME280;64685;48.762;44.822;2023-04-06T22:49:07;101095.00;;;11.32;57.67
75998;BME280;64685;48.762;44.822;2023-04-06T22:54:10;101098.44;;;11.29;57.72
75998;BME280;64685;48.762;44.822;2023-04-06T22:59:13;101100.41;;;11.28;57.93
75998;BME280;64685;48.762;44.822;2023-04-06T23:04:15;101095.13;;;11.27;58.08
75998;BME280;64685;48.762;44.822;2023-04-06T23:09:18;101089.56;;;11.27;57.98
75998;BME280;64685;48.762;44.822;2023-04-06T23:14:21;101087.19;;;11.20;58.73
75998;BME280;64685;48.762;44.822;2023-04-06T23:19:23;101088.34;;;11.19;58.63
75998;BME280;64685;48.762;44.822;2023-04-06T23:24:25;101086.56;;;11.23;58.40
75998;BME280;64685;48.762;44.822;2023-04-06T23:29:28;101088.41;;;11.28;58.94
75998;BME280;64685;48.762;44.822;2023-04-06T23:34:30;101085.91;;;11.26;58.14
75998;BME280;64685;48.762;44.822;2023-04-06T23:39:34;101090.69;;;11.26;58.77
75998;BME280;64685;48.762;44.822;2023-04-06T23:44:36;101088.53;;;11.23;58.49
75998;BME280;64685;48.762;44.822;2023-04-06T23:49:39;101082.31;;;11.26;58.67
75998;BME280;64685;48.762;44.822;2023-04-06T23:54:41;101087.50;;;11.19;58.51
75998;BME280;64685;48.762;44.822;2023-04-06T23:59:44;101087.06;;;11.03;59.03
